メインページ
METAR-TAF:

METAR-TAF

空港 :

エドモントン, アルバータ州, カナダ

エドモントン国際空港

緯度: 53-18N, 経度: 113-35W, 海抜: 715m

現時点の気象観測

当レポートは28分前の16:00(UTC)に作成
南/南東の風 3kt
気温 -8°C
湿度 79%
気圧 1011 hPa
視程: 24.1km
高度3500ftの雲はほとんどない
高度7500ftの雲は散在している
高度11000ftの千切れ雲あり

METAR: CYEG 221600Z 15003KT 15SM FEW035 SCT075 BKN110 M08/M11 A2986 RMK SC2AC2AC3 SLP164

時間: 09:28 (16:28 UTC)

予報

当レポートは40分前の15:48(UTC)に作成
予報は22日の 15時(UTC)から 23日の 12時(UTC)まで有効
変向風 3kt
視程: 10km
高度1200ftの雲は散在している
高度3000ftの雲は散在している
高度7000ftの千切れ雲あり
22日の 15時(UTC)から 22日の 21時(UTC)まで一時的に
視程: 8.0km
高度1200ftの千切れ雲あり
高度3000ftの曇り
小雪, 靄
確率 40%
22日の 16時(UTC)から 22日の 21時(UTC)まで
視程: 8.0km
(弱い) 着氷性, 雨, 靄
22日の 2100時(UTC)から
南/南東の風 7kt
視程: 10km
高度1200ftの千切れ雲あり
23日の 00時(UTC)から 23日の 05時(UTC)まで一時的に
高度1200ftの雲は散在している
23日の 00時(UTC)から 23日の 02時(UTC)まで徐々に
東/南東の風 5kt
23日の 0500時(UTC)から
南/南西の風 5kt
視程: 10km
高度12000ftの千切れ雲あり
23日の 1000時(UTC)から
南/南西の風 10kt
視程: 10km
高度14000ftの雲は散在している

TAF: CYEG 221548Z 2215/2312 VRB03KT P6SM SCT012 SCT030 BKN070 TEMPO 2215/2221 5SM -SN BR BKN012 OVC030 PROB40 2216/2221 5SM -FZRA BR FM222100 15007KT P6SM BKN012 TEMPO 2300/2305 SCT012 BECMG 2300/2302 11005KT FM230500 20005KT P6SM BKN120 FM231000 20010KT P6SM SCT140 RMK NXT FCST BY 221800Z

4,000以上の空港の気象観測と天気予報(METAR報とTAF報)

利用可能な観測所は地図上に黄色い丸と赤い丸で示す。

丸の上にカーソルを重ねると観測所名を参照できる。

次にクリックすると気象観測と天気予報を参照できる。

マップの切り替え:黒色「×」印の緑ボタンをクリックして拡大、「-」印の緑ボタンをクリックして縮小、緑色の三角印をクリックして隣りの地図に切り替え


METAR-TAF: